Time;durP1;ratioP1;P1;durP2;ratioP2;P2;SDS_P1;SDS_P2;PMS_P1;PMS_P2;Temp;Humidity;BMP_temperature;BMP_pressure;BME280_temperature;BME280_humidity;BME280_pressure;Samples;Min_cycle;Max_cycle;Signal;HPM_P1;HPM_P2
2023/12/25 00:00:34;;;;;;;16.67;3.53;;;;;;;;;;5061710;28;20390;-82
2023/12/25 00:03:01;;;;;;;15.15;3.45;;;;;;;;;;5070254;28;20786;-82
2023/12/25 00:05:27;;;;;;;20.20;4.05;;;;;;;;;;5075381;28;20485;-83
2023/12/25 00:07:53;;;;;;;16.30;4.10;;;;;;;;;;5058074;28;20923;-82
2023/12/25 00:10:19;;;;;;;15.07;3.38;;;;;;;;;;5076832;28;20494;-83
2023/12/25 00:12:45;;;;;;;14.43;3.33;;;;;;;;;;5073354;28;20434;-82
2023/12/25 00:15:11;;;;;;;15.82;3.83;;;;;;;;;;5036394;28;20541;-82
2023/12/25 00:17:37;;;;;;;17.17;3.40;;;;;;;;;;5071879;28;20414;-82
2023/12/25 00:20:04;;;;;;;14.45;3.00;;;;;;;;;;5114914;27;20394;-80
2023/12/25 00:22:30;;;;;;;14.25;3.10;;;;;;;;;;5091772;28;20397;-80
2023/12/25 00:24:56;;;;;;;16.05;3.35;;;;;;;;;;5073591;28;20413;-83
2023/12/25 00:27:22;;;;;;;14.75;3.45;;;;;;;;;;5103862;28;20432;-83
2023/12/25 00:29:48;;;;;;;14.98;3.30;;;;;;;;;;5090296;28;20497;-83
2023/12/25 00:32:15;;;;;;;17.48;2.95;;;;;;;;;;5091546;28;20471;-83
2023/12/25 00:34:42;;;;;;;17.98;3.70;;;;;;;;;;5077722;28;20747;-83
2023/12/25 00:37:08;;;;;;;11.80;2.97;;;;;;;;;;5088788;28;20403;-83
2023/12/25 00:39:34;;;;;;;11.60;2.70;;;;;;;;;;5092262;28;20410;-82
2023/12/25 00:42:00;;;;;;;12.32;2.85;;;;;;;;;;5089366;28;20403;-82
2023/12/25 00:44:27;;;;;;;12.73;2.60;;;;;;;;;;5089278;28;20418;-82
2023/12/25 00:46:53;;;;;;;9.25;2.58;;;;;;;;;;5049397;28;20408;-82
2023/12/25 00:49:19;;;;;;;11.52;2.40;;;;;;;;;;5068676;28;20412;-79
2023/12/25 00:51:48;;;;;;;9.52;2.53;;;;;;;;;;5119923;27;20482;-79
2023/12/25 00:54:14;;;;;;;13.07;2.63;;;;;;;;;;5088656;28;20861;-79
2023/12/25 00:56:40;;;;;;;8.82;2.40;;;;;;;;;;5122505;27;20397;-80
2023/12/25 00:59:07;;;;;;;10.55;2.55;;;;;;;;;;5071420;28;20390;-79
2023/12/25 01:01:33;;;;;;;11.82;2.33;;;;;;;;;;5055228;28;20390;-80
2023/12/25 01:03:59;;;;;;;9.83;2.53;;;;;;;;;;5074204;28;20458;-80
2023/12/25 01:06:26;;;;;;;11.93;2.20;;;;;;;;;;5060874;28;20768;-80
2023/12/25 01:08:52;;;;;;;12.02;2.40;;;;;;;;;;5097189;28;20398;-80
2023/12/25 01:11:18;;;;;;;10.50;2.50;;;;;;;;;;5097729;28;20403;-80
2023/12/25 01:13:44;;;;;;;13.55;2.58;;;;;;;;;;5093392;28;20475;-80
2023/12/25 01:16:10;;;;;;;9.00;2.30;;;;;;;;;;5090702;28;20947;-79
2023/12/25 01:18:36;;;;;;;9.85;2.38;;;;;;;;;;5068505;28;20917;-79
2023/12/25 01:21:02;;;;;;;10.52;2.53;;;;;;;;;;5089109;28;20951;-80
2023/12/25 01:23:28;;;;;;;11.32;2.00;;;;;;;;;;5084152;28;20409;-81
2023/12/25 01:25:54;;;;;;;10.10;2.30;;;;;;;;;;5065080;28;20410;-78
2023/12/25 01:28:21;;;;;;;11.90;2.95;;;;;;;;;;5087949;28;20870;-79
2023/12/25 01:30:47;;;;;;;10.70;2.47;;;;;;;;;;5089211;28;20398;-79
2023/12/25 01:33:13;;;;;;;8.70;2.67;;;;;;;;;;5086670;28;20757;-80
2023/12/25 01:35:39;;;;;;;7.78;2.10;;;;;;;;;;5100351;28;20778;-79
2023/12/25 01:38:05;;;;;;;10.65;2.50;;;;;;;;;;5072934;28;20474;-79
2023/12/25 01:40:31;;;;;;;12.57;2.37;;;;;;;;;;5088164;28;20390;-79
2023/12/25 01:42:57;;;;;;;12.88;2.53;;;;;;;;;;5076326;28;20417;-78
2023/12/25 01:45:23;;;;;;;16.20;3.08;;;;;;;;;;5070606;28;20559;-79
2023/12/25 01:47:49;;;;;;;12.32;3.20;;;;;;;;;;5072185;28;20425;-80
2023/12/25 01:50:16;;;;;;;10.55;2.33;;;;;;;;;;5098155;28;20498;-80
2023/12/25 01:52:42;;;;;;;12.15;2.40;;;;;;;;;;5092783;28;20429;-79
2023/12/25 01:55:08;;;;;;;14.98;2.67;;;;;;;;;;5080014;28;20396;-80
2023/12/25 01:57:36;;;;;;;12.70;2.95;;;;;;;;;;5057721;28;20399;-80
2023/12/25 02:00:02;;;;;;;13.75;2.30;;;;;;;;;;5067483;28;20967;-80
2023/12/25 02:02:28;;;;;;;11.87;2.80;;;;;;;;;;5076603;28;20432;-79
2023/12/25 02:04:55;;;;;;;12.73;2.83;;;;;;;;;;5092940;28;20425;-79
2023/12/25 02:07:21;;;;;;;13.25;2.42;;;;;;;;;;5104530;28;20447;-79
2023/12/25 02:09:51;;;;;;;15.63;3.63;;;;;;;;;;5076845;28;20485;-79
2023/12/25 02:12:17;;;;;;;11.73;2.65;;;;;;;;;;5090404;28;20433;-80
2023/12/25 02:14:43;;;;;;;12.15;2.45;;;;;;;;;;5080037;28;20415;-80
2023/12/25 02:17:10;;;;;;;8.53;2.10;;;;;;;;;;5061426;28;20408;-80
2023/12/25 02:19:41;;;;;;;15.73;2.63;;;;;;;;;;5065880;28;20413;-80
2023/12/25 02:22:07;;;;;;;11.40;2.40;;;;;;;;;;5078061;28;20917;-80
2023/12/25 02:24:36;;;;;;;10.05;2.22;;;;;;;;;;5093955;28;20404;-80
2023/12/25 02:27:05;;;;;;;10.60;2.10;;;;;;;;;;5057325;28;20445;-80
2023/12/25 02:29:33;;;;;;;12.30;2.78;;;;;;;;;;5097335;28;20413;-80
2023/12/25 02:31:59;;;;;;;8.52;2.10;;;;;;;;;;5076367;28;20909;-80
2023/12/25 02:34:28;;;;;;;8.70;2.25;;;;;;;;;;5040200;28;20398;-80
2023/12/25 02:36:54;;;;;;;9.43;2.35;;;;;;;;;;5057862;28;20434;-79
2023/12/25 02:39:23;;;;;;;11.18;2.17;;;;;;;;;;5083704;28;20810;-79
2023/12/25 02:41:49;;;;;;;7.97;2.10;;;;;;;;;;5061846;28;20394;-80
2023/12/25 02:44:16;;;;;;;9.68;2.33;;;;;;;;;;5063470;28;20477;-80
2023/12/25 02:46:42;;;;;;;10.68;2.15;;;;;;;;;;5058794;28;20416;-80
2023/12/25 02:49:08;;;;;;;9.85;2.05;;;;;;;;;;5077354;28;20483;-80
2023/12/25 02:51:34;;;;;;;10.93;1.98;;;;;;;;;;5041240;28;20404;-81
2023/12/25 02:54:02;;;;;;;11.07;2.28;;;;;;;;;;5073536;28;20457;-80
2023/12/25 02:56:28;;;;;;;9.52;1.95;;;;;;;;;;5053974;28;20430;-79
2023/12/25 02:58:54;;;;;;;9.60;2.00;;;;;;;;;;5057019;28;20758;-79
2023/12/25 03:01:20;;;;;;;8.40;2.05;;;;;;;;;;5042655;28;20417;-79
2023/12/25 03:03:47;;;;;;;10.93;1.88;;;;;;;;;;5077263;28;20406;-78
2023/12/25 03:06:13;;;;;;;13.68;2.35;;;;;;;;;;5025643;28;20400;-78
2023/12/25 03:08:39;;;;;;;9.73;2.00;;;;;;;;;;5046135;28;20406;-79
2023/12/25 03:11:06;;;;;;;11.13;1.90;;;;;;;;;;5055499;28;20504;-80
2023/12/25 03:13:32;;;;;;;9.90;2.10;;;;;;;;;;5086042;28;20431;-80
2023/12/25 03:15:58;;;;;;;9.30;2.08;;;;;;;;;;5078897;28;20755;-80
2023/12/25 03:18:24;;;;;;;8.10;2.15;;;;;;;;;;5098684;28;20406;-80
2023/12/25 03:20:50;;;;;;;8.07;1.95;;;;;;;;;;5059895;28;20882;-80
2023/12/25 03:23:16;;;;;;;9.48;2.45;;;;;;;;;;5114162;27;20802;-80
2023/12/25 03:25:42;;;;;;;10.65;2.22;;;;;;;;;;5073424;28;20407;-80
2023/12/25 03:28:08;;;;;;;11.93;2.78;;;;;;;;;;5056421;28;20423;-82
2023/12/25 03:30:34;;;;;;;10.47;2.37;;;;;;;;;;5089539;28;20408;-83
2023/12/25 03:33:01;;;;;;;8.80;2.20;;;;;;;;;;5082787;28;20420;-83
2023/12/25 03:35:27;;;;;;;7.10;1.92;;;;;;;;;;5072415;28;20395;-83
2023/12/25 03:37:53;;;;;;;7.95;2.25;;;;;;;;;;5065127;28;20405;-83
2023/12/25 03:40:19;;;;;;;8.95;2.17;;;;;;;;;;5075961;28;20792;-83
2023/12/25 03:42:45;;;;;;;10.18;2.13;;;;;;;;;;5084102;28;20434;-83
2023/12/25 03:45:11;;;;;;;10.68;2.70;;;;;;;;;;5075247;28;20398;-83
2023/12/25 03:47:37;;;;;;;14.60;2.80;;;;;;;;;;5086078;28;20417;-83
2023/12/25 03:50:03;;;;;;;9.23;2.13;;;;;;;;;;5085106;28;20398;-83
2023/12/25 03:52:29;;;;;;;9.77;2.50;;;;;;;;;;5090689;28;20426;-83
2023/12/25 03:54:55;;;;;;;10.15;2.03;;;;;;;;;;5056848;28;20400;-83
2023/12/25 03:57:22;;;;;;;13.40;2.30;;;;;;;;;;5081428;28;20894;-83
2023/12/25 03:59:48;;;;;;;11.43;2.35;;;;;;;;;;5080058;28;20413;-83
2023/12/25 04:02:14;;;;;;;9.45;2.15;;;;;;;;;;5091898;28;20894;-83
2023/12/25 04:04:40;;;;;;;10.98;2.10;;;;;;;;;;5090402;28;20397;-83
2023/12/25 04:07:09;;;;;;;8.45;1.80;;;;;;;;;;5092183;28;20399;-83
2023/12/25 04:09:35;;;;;;;12.13;2.58;;;;;;;;;;5074464;28;20406;-84
2023/12/25 04:12:01;;;;;;;8.85;2.10;;;;;;;;;;5074553;28;20465;-83
2023/12/25 04:14:27;;;;;;;11.10;2.30;;;;;;;;;;5069831;28;20898;-82
2023/12/25 04:16:53;;;;;;;10.88;2.50;;;;;;;;;;5072383;28;20484;-82
2023/12/25 04:19:19;;;;;;;8.23;1.77;;;;;;;;;;5080383;28;20473;-82
2023/12/25 04:21:45;;;;;;;8.45;2.33;;;;;;;;;;5105786;28;20432;-82
2023/12/25 04:24:11;;;;;;;9.18;2.20;;;;;;;;;;5105500;27;20457;-82
2023/12/25 04:26:37;;;;;;;12.02;2.33;;;;;;;;;;5124799;27;20887;-83
2023/12/25 04:29:04;;;;;;;10.23;2.30;;;;;;;;;;5081593;28;20398;-82
2023/12/25 04:31:30;;;;;;;11.23;2.53;;;;;;;;;;5072997;28;20395;-82
2023/12/25 04:33:56;;;;;;;10.15;2.00;;;;;;;;;;5069073;28;20840;-83
2023/12/25 04:36:22;;;;;;;9.43;2.70;;;;;;;;;;5086760;28;20419;-82
2023/12/25 04:38:48;;;;;;;12.43;2.38;;;;;;;;;;5074860;28;20481;-82
2023/12/25 04:41:14;;;;;;;15.18;2.67;;;;;;;;;;5098251;28;20397;-82
2023/12/25 04:43:40;;;;;;;14.00;2.80;;;;;;;;;;5073779;28;20409;-84
2023/12/25 04:46:08;;;;;;;12.38;2.40;;;;;;;;;;5090158;28;20437;-83
2023/12/25 04:48:34;;;;;;;14.52;2.78;;;;;;;;;;5106758;28;20902;-82
2023/12/25 04:51:00;;;;;;;15.03;2.70;;;;;;;;;;5088671;28;20739;-81
2023/12/25 04:53:26;;;;;;;10.95;2.40;;;;;;;;;;5088709;28;20440;-82
2023/12/25 04:55:52;;;;;;;9.32;2.10;;;;;;;;;;5074044;28;20404;-81
2023/12/25 04:58:19;;;;;;;17.05;2.55;;;;;;;;;;5074299;28;20409;-79
2023/12/25 05:00:45;;;;;;;14.25;2.53;;;;;;;;;;5066412;28;20417;-79
2023/12/25 05:03:11;;;;;;;14.63;2.43;;;;;;;;;;5088721;28;20408;-78
2023/12/25 05:05:37;;;;;;;11.25;2.33;;;;;;;;;;5059802;28;20406;-79
2023/12/25 05:08:03;;;;;;;13.80;2.85;;;;;;;;;;5073586;28;20404;-79
2023/12/25 05:10:29;;;;;;;15.98;3.13;;;;;;;;;;5097816;28;20845;-79
2023/12/25 05:12:55;;;;;;;11.27;2.80;;;;;;;;;;5071161;28;20422;-82
2023/12/25 05:15:21;;;;;;;14.43;2.97;;;;;;;;;;5101146;28;20403;-82
2023/12/25 05:17:47;;;;;;;14.77;3.20;;;;;;;;;;5080725;28;20461;-81
2023/12/25 05:20:13;;;;;;;13.23;2.78;;;;;;;;;;5084572;28;20400;-82
2023/12/25 05:22:39;;;;;;;12.13;2.80;;;;;;;;;;5100935;28;20402;-82
2023/12/25 05:25:06;;;;;;;13.52;2.80;;;;;;;;;;5071543;28;20421;-81
2023/12/25 05:27:32;;;;;;;14.18;2.80;;;;;;;;;;5066716;28;20451;-82
2023/12/25 05:29:59;;;;;;;12.05;2.70;;;;;;;;;;5069594;28;20450;-81
2023/12/25 05:32:25;;;;;;;13.70;2.97;;;;;;;;;;5066968;28;20431;-82
2023/12/25 05:34:51;;;;;;;14.13;2.97;;;;;;;;;;5108561;28;20426;-82
2023/12/25 05:37:17;;;;;;;15.97;2.83;;;;;;;;;;5073558;28;20429;-82
2023/12/25 05:39:44;;;;;;;19.50;3.42;;;;;;;;;;5053884;28;20956;-82
2023/12/25 05:42:10;;;;;;;14.18;2.75;;;;;;;;;;5093229;28;20464;-81
2023/12/25 05:44:36;;;;;;;12.77;3.17;;;;;;;;;;5087605;28;20435;-80
2023/12/25 05:47:02;;;;;;;13.18;2.95;;;;;;;;;;5072815;28;20402;-80
2023/12/25 05:49:29;;;;;;;12.95;2.70;;;;;;;;;;5073716;28;20470;-80
2023/12/25 05:51:55;;;;;;;16.30;3.53;;;;;;;;;;5065584;28;20406;-79
2023/12/25 05:54:21;;;;;;;11.35;2.50;;;;;;;;;;5072628;28;20957;-78
2023/12/25 05:56:47;;;;;;;12.38;2.63;;;;;;;;;;5087032;28;20430;-79
2023/12/25 05:59:13;;;;;;;14.95;2.92;;;;;;;;;;5073299;28;20421;-82
2023/12/25 06:01:39;;;;;;;16.25;3.08;;;;;;;;;;5089749;28;20417;-81
2023/12/25 06:04:05;;;;;;;14.07;3.35;;;;;;;;;;5073088;28;20433;-82
2023/12/25 06:06:31;;;;;;;14.20;2.92;;;;;;;;;;5082590;28;20487;-83
2023/12/25 06:08:58;;;;;;;14.25;3.28;;;;;;;;;;5089923;28;20398;-82
2023/12/25 06:11:24;;;;;;;14.63;3.05;;;;;;;;;;5070103;28;20478;-82
2023/12/25 06:13:50;;;;;;;15.95;2.95;;;;;;;;;;5071106;28;20422;-82
2023/12/25 06:16:16;;;;;;;15.32;2.78;;;;;;;;;;5072377;28;20419;-82
2023/12/25 06:18:42;;;;;;;15.38;2.55;;;;;;;;;;5078360;28;20773;-82
2023/12/25 06:21:08;;;;;;;11.65;2.90;;;;;;;;;;5089819;28;20410;-83
2023/12/25 06:23:35;;;;;;;15.02;3.50;;;;;;;;;;5085599;28;20406;-83
2023/12/25 06:26:01;;;;;;;13.45;3.13;;;;;;;;;;5090360;28;20406;-83
2023/12/25 06:28:27;;;;;;;16.30;3.30;;;;;;;;;;5123492;28;20409;-80
2023/12/25 06:30:53;;;;;;;14.63;2.78;;;;;;;;;;5071849;28;20521;-80
2023/12/25 06:33:19;;;;;;;14.73;2.70;;;;;;;;;;5097668;28;20431;-80
2023/12/25 06:35:45;;;;;;;14.55;3.17;;;;;;;;;;5105667;28;20398;-80
2023/12/25 06:38:13;;;;;;;13.43;3.25;;;;;;;;;;5091758;28;20399;-80
2023/12/25 06:40:39;;;;;;;17.67;3.28;;;;;;;;;;5090454;28;20475;-80
2023/12/25 06:43:05;;;;;;;13.65;3.15;;;;;;;;;;5072257;28;20405;-80
2023/12/25 06:45:31;;;;;;;15.73;3.28;;;;;;;;;;5062088;28;20487;-80
2023/12/25 06:47:57;;;;;;;17.90;3.42;;;;;;;;;;5093308;28;20509;-80
2023/12/25 06:50:24;;;;;;;11.20;3.17;;;;;;;;;;5076145;28;20455;-80
2023/12/25 06:52:50;;;;;;;11.55;2.53;;;;;;;;;;5074281;28;20418;-80
2023/12/25 06:55:16;;;;;;;16.43;2.60;;;;;;;;;;5055242;28;20553;-80
2023/12/25 06:57:42;;;;;;;14.43;3.47;;;;;;;;;;5075723;28;20406;-79
2023/12/25 07:00:08;;;;;;;12.85;2.85;;;;;;;;;;5113131;27;20425;-80
2023/12/25 07:02:34;;;;;;;11.82;2.60;;;;;;;;;;5088259;28;20448;-83
2023/12/25 07:05:01;;;;;;;15.13;2.83;;;;;;;;;;5110780;27;20442;-82
2023/12/25 07:07:27;;;;;;;17.45;2.90;;;;;;;;;;5092456;28;20408;-82
2023/12/25 07:09:53;;;;;;;13.80;2.90;;;;;;;;;;5074790;28;20809;-81
2023/12/25 07:12:19;;;;;;;14.00;2.78;;;;;;;;;;5078333;28;20450;-83
2023/12/25 07:14:45;;;;;;;11.80;2.40;;;;;;;;;;5072540;28;20941;-82
2023/12/25 07:17:12;;;;;;;15.00;2.60;;;;;;;;;;5057818;28;20474;-82
2023/12/25 07:19:39;;;;;;;11.70;2.40;;;;;;;;;;5048032;28;20396;-82
2023/12/25 07:22:05;;;;;;;13.32;2.80;;;;;;;;;;5077243;28;20492;-82
2023/12/25 07:24:31;;;;;;;12.50;2.63;;;;;;;;;;5060545;28;20402;-80
2023/12/25 07:26:57;;;;;;;14.93;2.87;;;;;;;;;;5054654;28;20431;-80
2023/12/25 07:29:24;;;;;;;16.65;3.10;;;;;;;;;;5062509;28;20430;-79
2023/12/25 07:31:50;;;;;;;16.15;2.47;;;;;;;;;;5049317;28;20441;-81
2023/12/25 07:34:16;;;;;;;13.48;3.42;;;;;;;;;;5066712;28;20420;-82
2023/12/25 07:36:42;;;;;;;15.45;3.40;;;;;;;;;;5058695;28;20429;-83
2023/12/25 07:39:08;;;;;;;14.88;2.60;;;;;;;;;;5076272;28;20902;-82
2023/12/25 07:41:34;;;;;;;12.85;2.80;;;;;;;;;;5053358;28;20916;-83
2023/12/25 07:44:02;;;;;;;12.40;2.45;;;;;;;;;;5057962;28;20401;-83
2023/12/25 07:46:28;;;;;;;13.68;2.88;;;;;;;;;;5063010;28;20925;-82
2023/12/25 07:48:54;;;;;;;15.60;3.22;;;;;;;;;;5053512;28;20417;-82
2023/12/25 07:51:20;;;;;;;11.88;2.60;;;;;;;;;;5093142;28;20394;-83
2023/12/25 07:53:46;;;;;;;12.10;2.22;;;;;;;;;;5072436;28;20424;-83
2023/12/25 07:56:13;;;;;;;10.77;2.60;;;;;;;;;;5067132;28;20764;-82
2023/12/25 07:58:39;;;;;;;15.20;2.58;;;;;;;;;;5064803;28;20402;-82
2023/12/25 08:01:05;;;;;;;16.70;3.30;;;;;;;;;;5072651;28;20541;-82
2023/12/25 08:03:31;;;;;;;14.00;2.53;;;;;;;;;;5087566;28;20402;-83
2023/12/25 08:05:57;;;;;;;11.40;2.63;;;;;;;;;;5059284;28;20743;-83
2023/12/25 08:08:23;;;;;;;11.70;3.20;;;;;;;;;;5050655;28;20475;-84
2023/12/25 08:10:49;;;;;;;10.93;2.40;;;;;;;;;;5059309;28;20402;-83
2023/12/25 08:13:18;;;;;;;11.07;3.17;;;;;;;;;;5064532;28;20461;-83
2023/12/25 08:15:45;;;;;;;25.50;3.35;;;;;;;;;;5063791;28;20406;-81
2023/12/25 08:18:11;;;;;;;12.80;2.92;;;;;;;;;;5123095;27;20429;-81
2023/12/25 08:20:37;;;;;;;17.02;2.75;;;;;;;;;;5059404;28;20398;-81
2023/12/25 08:23:03;;;;;;;17.48;3.10;;;;;;;;;;5112454;27;20430;-81
2023/12/25 08:25:29;;;;;;;8.95;2.60;;;;;;;;;;5105658;28;20546;-82
2023/12/25 08:27:55;;;;;;;14.20;2.65;;;;;;;;;;5087888;28;20402;-82
2023/12/25 08:30:21;;;;;;;12.17;3.27;;;;;;;;;;5091787;28;20410;-82
2023/12/25 08:32:47;;;;;;;16.55;2.65;;;;;;;;;;5074223;28;20774;-80
2023/12/25 08:35:14;;;;;;;18.08;3.65;;;;;;;;;;5091580;28;20453;-82
2023/12/25 08:37:40;;;;;;;15.02;3.10;;;;;;;;;;5091399;28;20392;-78
2023/12/25 08:40:07;;;;;;;13.63;2.70;;;;;;;;;;5095461;28;20406;-79
2023/12/25 08:42:33;;;;;;;17.30;3.15;;;;;;;;;;5091518;28;20404;-78
2023/12/25 08:45:04;;;;;;;14.35;3.50;;;;;;;;;;5073821;28;20449;-79
2023/12/25 08:47:30;;;;;;;15.30;2.88;;;;;;;;;;5071432;28;21051;-80
2023/12/25 08:49:56;;;;;;;14.73;3.05;;;;;;;;;;5055363;28;20418;-82
2023/12/25 08:52:24;;;;;;;16.20;3.43;;;;;;;;;;5072980;28;20509;-82
2023/12/25 08:54:50;;;;;;;14.73;2.95;;;;;;;;;;5083704;28;20454;-82
2023/12/25 08:57:16;;;;;;;14.57;2.67;;;;;;;;;;5083433;28;20451;-80
2023/12/25 08:59:43;;;;;;;14.80;3.20;;;;;;;;;;5068266;28;20407;-79
2023/12/25 09:02:09;;;;;;;15.32;3.20;;;;;;;;;;5062199;28;20427;-80
2023/12/25 09:04:35;;;;;;;20.83;3.20;;;;;;;;;;5082127;28;20442;-80
2023/12/25 09:07:01;;;;;;;14.88;3.30;;;;;;;;;;5088570;28;20394;-81
2023/12/25 09:09:27;;;;;;;16.63;2.83;;;;;;;;;;5069904;28;20398;-82
2023/12/25 09:11:54;;;;;;;15.73;2.78;;;;;;;;;;5086332;28;20399;-81
2023/12/25 09:14:20;;;;;;;18.50;3.03;;;;;;;;;;5045392;28;20420;-82
2023/12/25 09:16:47;;;;;;;16.98;2.90;;;;;;;;;;5066769;28;20414;-82
2023/12/25 09:19:13;;;;;;;13.48;2.65;;;;;;;;;;5088568;28;20957;-81
2023/12/25 09:21:39;;;;;;;13.02;3.08;;;;;;;;;;5063639;28;20399;-81
2023/12/25 09:24:06;;;;;;;17.60;4.22;;;;;;;;;;5079028;28;20401;-81
2023/12/25 09:26:32;;;;;;;16.50;3.13;;;;;;;;;;5089244;28;20406;-81
2023/12/25 09:28:58;;;;;;;15.32;3.10;;;;;;;;;;5084704;28;20400;-81
2023/12/25 09:31:24;;;;;;;13.83;2.83;;;;;;;;;;5109949;27;20424;-81
2023/12/25 09:33:51;;;;;;;14.07;2.78;;;;;;;;;;5090161;28;20514;-82
2023/12/25 09:36:17;;;;;;;12.05;2.50;;;;;;;;;;5076017;28;20405;-83
2023/12/25 09:38:43;;;;;;;15.82;2.97;;;;;;;;;;5089015;28;20403;-83
2023/12/25 09:41:10;;;;;;;13.45;2.47;;;;;;;;;;5092584;28;20404;-82
2023/12/25 09:43:41;;;;;;;10.10;2.43;;;;;;;;;;5072479;28;20402;-81
2023/12/25 09:46:08;;;;;;;16.23;3.05;;;;;;;;;;5066161;28;20402;-83
2023/12/25 09:48:35;;;;;;;16.53;3.07;;;;;;;;;;5106660;28;20443;-83
2023/12/25 09:51:04;;;;;;;13.13;2.78;;;;;;;;;;5090796;28;20409;-83
2023/12/25 09:53:30;;;;;;;16.33;3.00;;;;;;;;;;5093328;28;20786;-83
2023/12/25 09:55:57;;;;;;;14.18;2.97;;;;;;;;;;5086279;28;20426;-83
2023/12/25 09:58:27;;;;;;;12.32;3.00;;;;;;;;;;5071694;28;20493;-83
2023/12/25 10:00:54;;;;;;;10.20;2.50;;;;;;;;;;5088830;28;20394;-81
2023/12/25 10:03:20;;;;;;;14.32;2.78;;;;;;;;;;5090078;28;20410;-83
2023/12/25 10:05:46;;;;;;;22.38;3.13;;;;;;;;;;5086699;28;20963;-84
2023/12/25 10:08:13;;;;;;;12.15;2.53;;;;;;;;;;5069209;28;20406;-85
2023/12/25 10:10:39;;;;;;;13.77;3.00;;;;;;;;;;5072678;28;20765;-84
2023/12/25 10:13:05;;;;;;;14.60;2.88;;;;;;;;;;5094320;27;20455;-84
2023/12/25 10:15:31;;;;;;;15.17;2.97;;;;;;;;;;5093972;28;20406;-84
2023/12/25 10:18:15;;;;;;;14.70;3.33;;;;;;;;;;5107928;28;20415;-80
2023/12/25 10:20:41;;;;;;;13.07;2.63;;;;;;;;;;5112720;27;20410;-81
2023/12/25 10:23:12;;;;;;;11.40;2.42;;;;;;;;;;5099971;28;20435;-82
2023/12/25 10:25:44;;;;;;;16.85;3.30;;;;;;;;;;5062394;28;20464;-81
2023/12/25 10:28:11;;;;;;;16.77;3.03;;;;;;;;;;5071842;28;20417;-82
2023/12/25 10:30:37;;;;;;;14.88;3.30;;;;;;;;;;5088856;28;20736;-82
2023/12/25 10:33:11;;;;;;;15.95;3.00;;;;;;;;;;5075795;28;20422;-82
2023/12/25 10:35:37;;;;;;;11.80;3.30;;;;;;;;;;5093494;28;20409;-81
2023/12/25 10:38:05;;;;;;;14.25;3.03;;;;;;;;;;5077881;28;20411;-82
2023/12/25 10:40:31;;;;;;;15.50;2.75;;;;;;;;;;5093569;28;20401;-83
2023/12/25 10:42:58;;;;;;;11.60;2.70;;;;;;;;;;5091481;28;20503;-82
2023/12/25 10:45:28;;;;;;;16.98;3.40;;;;;;;;;;5062794;28;20500;-83
2023/12/25 10:48:02;;;;;;;16.10;3.28;;;;;;;;;;5061678;28;20419;-84
2023/12/25 10:50:30;;;;;;;18.90;3.60;;;;;;;;;;5075736;28;20405;-82
2023/12/25 10:53:05;;;;;;;21.23;4.00;;;;;;;;;;5064247;28;20418;-81
2023/12/25 10:55:31;;;;;;;16.10;3.67;;;;;;;;;;5089190;28;20409;-81
2023/12/25 10:57:57;;;;;;;16.92;2.60;;;;;;;;;;5064945;28;20741;-79
2023/12/25 11:00:24;;;;;;;15.60;3.27;;;;;;;;;;5067485;28;20413;-79
2023/12/25 11:02:52;;;;;;;13.90;3.35;;;;;;;;;;5074863;28;20800;-79
2023/12/25 11:05:19;;;;;;;16.17;3.38;;;;;;;;;;5082677;28;20906;-79
2023/12/25 11:07:46;;;;;;;18.13;3.38;;;;;;;;;;5057998;28;20458;-79
2023/12/25 11:10:13;;;;;;;16.25;3.90;;;;;;;;;;5108557;27;20397;-79
2023/12/25 11:12:39;;;;;;;21.43;3.97;;;;;;;;;;5093084;28;20441;-79
2023/12/25 11:15:06;;;;;;;18.38;3.65;;;;;;;;;;5060774;28;20415;-82
2023/12/25 11:17:34;;;;;;;15.52;3.30;;;;;;;;;;5069227;28;20451;-82
2023/12/25 11:20:03;;;;;;;22.40;3.97;;;;;;;;;;5088303;28;20737;-79
2023/12/25 11:22:30;;;;;;;19.60;3.25;;;;;;;;;;5068707;28;20402;-79
2023/12/25 11:25:00;;;;;;;17.98;3.90;;;;;;;;;;5041696;28;20402;-79
2023/12/25 11:27:30;;;;;;;18.15;4.20;;;;;;;;;;5040530;28;20407;-79
2023/12/25 11:30:02;;;;;;;20.35;3.72;;;;;;;;;;5065541;28;20924;-80
2023/12/25 11:32:33;;;;;;;18.30;3.75;;;;;;;;;;5059400;28;20433;-80
2023/12/25 11:34:59;;;;;;;17.47;3.57;;;;;;;;;;5074555;28;20417;-82
2023/12/25 11:37:25;;;;;;;18.55;3.70;;;;;;;;;;5042734;28;20494;-82
2023/12/25 11:40:08;;;;;;;16.98;3.50;;;;;;;;;;5075665;28;20976;-82
2023/12/25 11:42:34;;;;;;;18.05;3.83;;;;;;;;;;5059062;28;20397;-82
2023/12/25 11:45:02;;;;;;;20.70;4.20;;;;;;;;;;5058248;28;20402;-82
2023/12/25 11:47:29;;;;;;;20.15;4.20;;;;;;;;;;5063232;28;20498;-81
2023/12/25 11:49:58;;;;;;;14.55;3.78;;;;;;;;;;5055453;28;20891;-81
2023/12/25 11:52:43;;;;;;;15.50;3.90;;;;;;;;;;5057184;28;20905;-81
2023/12/25 11:55:29;;;;;;;22.83;4.50;;;;;;;;;;5067289;28;20401;-80
2023/12/25 11:57:55;;;;;;;18.23;3.95;;;;;;;;;;5078495;28;20396;-81
2023/12/25 12:00:23;;;;;;;16.85;3.55;;;;;;;;;;5077780;28;20416;-82
2023/12/25 12:02:49;;;;;;;18.53;4.10;;;;;;;;;;5095492;28;21009;-81
2023/12/25 12:05:16;;;;;;;28.10;11.30;;;;;;;;;;5095445;28;20450;-81
2023/12/25 12:07:42;;;;;;;27.15;8.98;;;;;;;;;;5058119;28;20867;-81
2023/12/25 12:10:09;;;;;;;15.73;5.13;;;;;;;;;;5022725;28;20463;-81
2023/12/25 12:12:39;;;;;;;17.42;4.10;;;;;;;;;;5089044;28;20448;-81
2023/12/25 12:15:05;;;;;;;19.13;3.95;;;;;;;;;;5077363;28;20414;-81
2023/12/25 12:17:32;;;;;;;19.98;4.28;;;;;;;;;;5058357;28;20414;-81
2023/12/25 12:19:58;;;;;;;14.65;3.13;;;;;;;;;;5058572;28;20406;-81
2023/12/25 12:22:26;;;;;;;17.65;3.75;;;;;;;;;;5057855;28;20920;-81
2023/12/25 12:24:52;;;;;;;12.60;3.47;;;;;;;;;;5074832;28;20522;-80
2023/12/25 12:27:21;;;;;;;12.50;3.20;;;;;;;;;;5090435;28;20437;-81
2023/12/25 12:29:48;;;;;;;11.32;2.80;;;;;;;;;;5053693;28;20416;-81
2023/12/25 12:32:14;;;;;;;12.68;3.17;;;;;;;;;;5071249;28;20407;-82
2023/12/25 12:34:41;;;;;;;11.50;2.90;;;;;;;;;;5055016;28;20405;-80
2023/12/25 12:37:07;;;;;;;14.32;3.10;;;;;;;;;;5057230;28;20405;-81
2023/12/25 12:39:34;;;;;;;12.85;2.53;;;;;;;;;;5038531;28;20408;-80
2023/12/25 12:42:00;;;;;;;10.82;2.60;;;;;;;;;;5039021;28;20431;-81
2023/12/25 12:44:27;;;;;;;16.88;3.40;;;;;;;;;;5057843;28;20405;-82
2023/12/25 12:46:53;;;;;;;13.07;2.97;;;;;;;;;;5056793;28;20406;-80
2023/12/25 12:49:20;;;;;;;15.02;6.13;;;;;;;;;;5054462;28;20469;-82
2023/12/25 12:51:46;;;;;;;14.88;3.15;;;;;;;;;;5056280;28;20408;-80
2023/12/25 12:54:12;;;;;;;15.45;3.25;;;;;;;;;;5075333;28;20414;-81
2023/12/25 12:56:38;;;;;;;12.00;2.40;;;;;;;;;;5056427;28;20408;-80
2023/12/25 12:59:04;;;;;;;10.95;2.70;;;;;;;;;;5058016;28;20456;-81
2023/12/25 13:01:31;;;;;;;10.55;3.05;;;;;;;;;;5040145;28;20414;-82
2023/12/25 13:03:57;;;;;;;13.98;3.00;;;;;;;;;;5074044;28;20898;-80
2023/12/25 13:06:25;;;;;;;11.57;2.80;;;;;;;;;;5074168;28;20394;-81
2023/12/25 13:08:53;;;;;;;9.40;2.40;;;;;;;;;;5074433;28;20509;-80
2023/12/25 13:11:24;;;;;;;20.97;6.87;;;;;;;;;;5057533;28;20837;-81
2023/12/25 13:13:50;;;;;;;14.55;5.38;;;;;;;;;;5041012;28;20417;-81
2023/12/25 13:16:19;;;;;;;13.63;3.08;;;;;;;;;;5045854;28;20437;-81
2023/12/25 13:18:48;;;;;;;12.13;3.13;;;;;;;;;;5089145;28;20429;-81
2023/12/25 13:21:14;;;;;;;12.70;3.17;;;;;;;;;;5107684;28;20405;-80
2023/12/25 13:23:42;;;;;;;13.77;3.08;;;;;;;;;;5100582;28;20400;-81
2023/12/25 13:26:08;;;;;;;13.13;2.95;;;;;;;;;;5090727;28;20425;-82
2023/12/25 13:28:34;;;;;;;11.55;2.85;;;;;;;;;;5073937;28;20802;-81
2023/12/25 13:31:00;;;;;;;14.10;3.63;;;;;;;;;;5090953;28;20394;-81
2023/12/25 13:33:27;;;;;;;13.63;2.78;;;;;;;;;;5073126;28;20430;-80
2023/12/25 13:35:53;;;;;;;15.55;3.30;;;;;;;;;;5047127;28;20427;-81
2023/12/25 13:38:20;;;;;;;12.48;2.88;;;;;;;;;;5103930;28;20408;-81
2023/12/25 13:40:46;;;;;;;11.75;2.92;;;;;;;;;;5104467;27;20510;-81
2023/12/25 13:43:13;;;;;;;9.77;2.72;;;;;;;;;;5086817;28;20408;-81
2023/12/25 13:45:39;;;;;;;12.18;2.83;;;;;;;;;;5070129;28;20597;-81
2023/12/25 13:48:06;;;;;;;12.73;2.87;;;;;;;;;;5101961;28;20421;-81
2023/12/25 13:50:32;;;;;;;13.93;2.92;;;;;;;;;;5089163;28;20460;-82
2023/12/25 13:52:58;;;;;;;9.07;2.67;;;;;;;;;;5091571;28;20505;-80
2023/12/25 13:55:24;;;;;;;11.48;2.90;;;;;;;;;;5073307;28;20417;-82
2023/12/25 13:57:50;;;;;;;11.00;2.90;;;;;;;;;;5124013;28;20410;-82
2023/12/25 14:00:18;;;;;;;13.85;3.40;;;;;;;;;;5105546;28;20420;-81
2023/12/25 14:02:44;;;;;;;9.70;2.67;;;;;;;;;;5070490;28;20483;-82
2023/12/25 14:05:13;;;;;;;13.45;2.50;;;;;;;;;;5087265;28;20395;-81
2023/12/25 14:07:39;;;;;;;10.32;2.30;;;;;;;;;;5089622;28;20898;-82
2023/12/25 14:10:05;;;;;;;9.57;2.83;;;;;;;;;;5073378;28;20401;-81
2023/12/25 14:12:32;;;;;;;8.60;2.17;;;;;;;;;;5056882;28;20464;-81
2023/12/25 14:14:58;;;;;;;5.80;2.15;;;;;;;;;;5056567;28;20429;-83
2023/12/25 14:17:24;;;;;;;11.18;2.40;;;;;;;;;;5055757;28;20425;-83
2023/12/25 14:19:50;;;;;;;11.63;2.80;;;;;;;;;;5039968;28;20434;-82
2023/12/25 14:22:16;;;;;;;11.48;2.58;;;;;;;;;;5082129;28;20396;-81
2023/12/25 14:24:42;;;;;;;12.83;2.67;;;;;;;;;;5059663;28;20407;-82
2023/12/25 14:27:08;;;;;;;10.63;3.00;;;;;;;;;;5093459;28;20401;-82